Steinbach, Canada
Current Conditions -  °F | °C
As of 3:00 AM on Thursday 23 Oct 2014 (Local Time) from CYWG Reporting Station
Overcast Overcast  
Wind Chill: 52°   Ceiling: 5400
Heat Index: 52°   Visibility: 15mi
Dew Point: 48°   Wind: 12mph
Humidity: 88%   Direction: 210°SSW
Pressure: 29.75"   Gusts: NA
Location:  49.52°N, 96.68°W
Report Text: CYWG 230800Z 21010KT 15SM OVC054 11/09 A2975 RMK SC8 SLP078
Loading
Personal Weather Stations






























Interactive Weather Map
Tropical Storm Tracking
New forecast layout! Learn more

10-Day Weather Forecast

Advertisements
Track Severe Weather on mobile